Time;durP1;ratioP1;P1;durP2;ratioP2;P2;SDS_P1;SDS_P2;PMS_P1;PMS_P2;Temp;Humidity;BMP_temperature;BMP_pressure;BME280_temperature;BME280_humidity;BME280_pressure;Samples;Min_cycle;Max_cycle;Signal;HPM_P1;HPM_P2
2022/10/25 00:00:48;;;;;;;;;1.50;1.00;;;;;16.13;69.05;100841.06;4997926;28;45396;-64
2022/10/25 00:03:13;;;;;;;;;1.00;1.00;;;;;16.54;68.61;100910.25;4995893;28;46202;-64
2022/10/25 00:05:39;;;;;;;;;4.00;1.00;;;;;16.09;68.67;100850.97;4997066;28;45386;-64
2022/10/25 00:08:05;;;;;;;;;2.50;0.50;;;;;16.46;69.00;100919.81;4996631;28;45412;-64
2022/10/25 00:10:30;;;;;;;;;2.00;1.00;;;;;16.45;68.97;100918.13;4996356;28;45571;-63
2022/10/25 00:12:56;;;;;;;;;2.00;2.00;;;;;16.23;69.15;100887.50;4979537;28;45374;-64
2022/10/25 00:15:21;;;;;;;;;1.25;1.25;;;;;16.43;68.98;100914.75;4996697;28;45404;-64
2022/10/25 00:17:47;;;;;;;;;10.25;5.00;;;;;16.42;69.14;100913.06;4980169;28;45834;-64
2022/10/25 00:20:12;;;;;;;;;6.25;6.25;;;;;16.33;69.35;100901.53;4997195;28;47053;-64
2022/10/25 00:22:38;;;;;;;;;5.75;1.75;;;;;16.40;69.41;100915.25;4979803;28;45358;-64
2022/10/25 00:25:05;;;;;;;;;2.00;2.00;;;;;16.35;69.05;100913.25;4996322;28;45191;-64
2022/10/25 00:27:30;;;;;;;;;4.00;1.00;;;;;16.37;69.43;100911.06;4980293;28;45312;-64
2022/10/25 00:29:56;;;;;;;;;5.00;3.00;;;;;16.30;69.55;100902.06;4965413;28;47952;-64
2022/10/25 00:32:21;;;;;;;;;4.75;3.50;;;;;16.30;69.27;100902.06;4975003;28;45797;-64
2022/10/25 00:34:47;;;;;;;;;7.00;4.00;;;;;16.35;69.31;100904.94;4959643;28;45503;-64
2022/10/25 00:37:12;;;;;;;;;4.00;4.00;;;;;16.21;69.35;100884.97;4976500;28;45638;-64
2022/10/25 00:39:38;;;;;;;;;4.00;1.00;;;;;16.37;69.65;100913.81;4977870;28;46062;-64
2022/10/25 00:42:03;;;;;;;;;3.50;2.25;;;;;16.35;69.56;100913.25;4993298;28;45412;-63
2022/10/25 00:44:35;;;;;;;;;3.00;2.00;;;;;16.31;69.63;100913.94;4978745;28;45444;-63
2022/10/25 00:47:18;;;;;;;;;2.80;1.00;;;;;16.28;69.80;100911.69;4997591;28;45449;-63
2022/10/25 00:49:44;;;;;;;;;1.20;1.20;;;;;16.26;69.68;100911.94;4997523;28;46351;-63
2022/10/25 00:52:10;;;;;;;;;3.80;3.00;;;;;16.30;69.85;100921.44;4963321;28;45573;-63
2022/10/25 00:54:38;;;;;;;;;2.00;2.00;;;;;16.29;69.74;100933.59;4963279;28;45417;-63
2022/10/25 00:57:08;;;;;;;;;0.80;0.80;;;;;16.28;70.03;100929.16;4996159;28;45455;-66
2022/10/25 00:59:33;;;;;;;;;7.40;2.20;;;;;16.27;69.36;100927.44;4995933;28;46593;-63
2022/10/25 01:01:59;;;;;;;;;3.25;1.00;;;;;16.26;69.80;100925.78;4997341;28;45349;-63
2022/10/25 01:04:26;;;;;;;;;3.75;2.75;;;;;16.25;70.12;100924.09;4996783;28;45299;-65
2022/10/25 01:06:52;;;;;;;;;1.20;1.20;;;;;16.26;69.93;100931.31;4979752;28;45457;-65
2022/10/25 01:09:21;;;;;;;;;1.50;1.50;;;;;15.93;70.04;100869.19;4979472;28;46629;-65
2022/10/25 01:11:47;;;;;;;;;2.40;1.60;;;;;15.97;69.91;100879.50;4995238;28;45427;-65
2022/10/25 01:14:13;;;;;;;;;4.00;1.50;;;;;15.74;70.02;100843.56;4995982;28;45351;-65
2022/10/25 01:16:58;;;;;;;;;2.80;2.00;;;;;16.23;69.85;100927.09;4963134;28;45359;-65
2022/10/25 01:20:04;;;;;;;;;1.80;1.40;;;;;16.20;69.94;100915.69;4996698;28;45341;-65
2022/10/25 01:22:48;;;;;;;;;4.60;3.00;;;;;16.18;70.32;100923.41;4996015;28;45489;-65
2022/10/25 01:25:17;;;;;;;;;3.60;1.80;;;;;16.00;70.34;100900.31;4997172;28;45198;-65
2022/10/25 01:28:00;;;;;;;;;4.00;2.20;;;;;16.16;70.21;100920.03;4996821;28;45325;-65
2022/10/25 01:30:50;;;;;;;;;2.00;2.00;;;;;16.13;70.19;100926.91;4996485;28;45412;-65
2022/10/25 01:33:21;;;;;;;;;2.00;2.00;;;;;16.15;70.30;100919.19;4995262;28;45331;-65
2022/10/25 01:36:07;;;;;;;;;0.80;0.80;;;;;15.61;70.33;100840.00;4953868;28;45479;-65
2022/10/25 01:38:42;;;;;;;;;1.80;1.00;;;;;16.13;70.41;100913.06;4972979;28;45465;-65
2022/10/25 01:41:17;;;;;;;;;4.40;2.00;;;;;16.09;70.54;100915.47;4979458;28;45335;-64
2022/10/25 01:43:57;;;;;;;;;4.60;3.00;;;;;16.09;70.53;100922.94;4994967;28;45452;-63
2022/10/25 01:46:28;;;;;;;;;2.00;2.00;;;;;16.10;70.26;100924.63;4996222;28;45318;-63
2022/10/25 01:49:04;;;;;;;;;2.40;2.40;;;;;16.08;70.48;100919.34;4962893;28;45327;-64
2022/10/25 01:51:30;;;;;;;;;1.40;1.40;;;;;16.07;70.50;100925.13;4978814;28;46467;-63
2022/10/25 01:53:56;;;;;;;;;0.75;0.00;;;;;16.03;70.46;100921.16;4961761;28;45371;-63
2022/10/25 01:56:40;;;;;;;;;1.00;1.00;;;;;16.01;70.60;100915.84;4995061;28;45506;-64
2022/10/25 01:59:35;;;;;;;;;3.00;0.60;;;;;16.00;70.54;100928.00;4994751;28;45430;-64
2022/10/25 02:02:23;;;;;;;;;2.00;0.50;;;;;15.91;70.99;100924.75;4994498;28;46449;-63
2022/10/25 02:05:15;;;;;;;;;1.80;1.80;;;;;15.90;70.81;100927.78;4980892;28;45425;-64
2022/10/25 02:07:41;;;;;;;;;2.00;2.00;;;;;15.44;70.63;100837.97;4995138;28;45332;-64
2022/10/25 02:10:09;;;;;;;;;1.40;0.40;;;;;15.78;70.84;100892.66;4978468;28;45402;-63
2022/10/25 02:12:56;;;;;;;;;3.20;1.60;;;;;15.92;70.74;100914.56;4978114;28;47546;-63
2022/10/25 02:15:35;;;;;;;;;4.40;1.80;;;;;15.93;70.43;100917.09;4994494;28;45344;-64
2022/10/25 02:18:02;;;;;;;;;1.80;1.00;;;;;15.95;70.21;100919.63;4979473;28;45884;-64
2022/10/25 02:20:30;;;;;;;;;3.00;1.40;;;;;15.92;70.15;100926.47;4994842;28;45565;-63
2022/10/25 02:22:56;;;;;;;;;1.40;1.40;;;;;15.95;70.63;100937.06;4978073;28;47701;-63
2022/10/25 02:25:21;;;;;;;;;3.50;2.00;;;;;15.97;70.17;100928.50;4994620;28;45423;-63
2022/10/25 02:27:48;;;;;;;;;1.75;1.75;;;;;15.99;70.33;100934.63;4977974;28;45420;-63
2022/10/25 02:30:14;;;;;;;;;1.80;1.60;;;;;16.00;70.65;100930.78;4978315;28;45505;-63
2022/10/25 02:32:39;;;;;;;;;3.50;1.75;;;;;15.93;70.47;100924.53;4994264;28;45486;-63
2022/10/25 02:35:05;;;;;;;;;0.50;0.00;;;;;15.95;70.72;100933.47;4977583;28;45457;-63
2022/10/25 02:37:31;;;;;;;;;1.80;1.60;;;;;16.02;70.62;100941.63;4978158;28;45415;-64
2022/10/25 02:39:57;;;;;;;;;2.00;1.80;;;;;15.77;70.68;100899.28;4994654;28;45286;-64
2022/10/25 02:42:22;;;;;;;;;3.00;2.75;;;;;16.04;70.45;100948.59;4993576;28;46039;-63
2022/10/25 02:44:48;;;;;;;;;3.75;1.00;;;;;16.06;70.24;100938.09;5010649;28;45377;-63
2022/10/25 02:47:13;;;;;;;;;0.75;0.75;;;;;16.08;70.51;100947.03;4995207;28;45169;-63
2022/10/25 02:49:39;;;;;;;;;3.00;1.75;;;;;16.03;70.27;100943.28;4994547;28;45314;-64
2022/10/25 02:52:04;;;;;;;;;1.00;1.00;;;;;16.12;70.56;100945.44;4994947;28;45474;-63
2022/10/25 02:54:30;;;;;;;;;2.25;0.75;;;;;16.15;70.45;100940.47;4995161;28;45311;-63
2022/10/25 02:56:55;;;;;;;;;2.00;0.25;;;;;16.11;70.27;100920.75;4995598;28;45547;-64
2022/10/25 02:59:20;;;;;;;;;2.00;2.00;;;;;16.12;70.17;100928.00;4994186;28;45531;-64
2022/10/25 03:01:46;;;;;;;;;3.50;1.75;;;;;16.18;69.88;100928.94;4993916;28;46064;-64
2022/10/25 03:04:12;;;;;;;;;2.50;1.75;;;;;16.18;69.88;100928.94;4993666;28;45330;-64
2022/10/25 03:06:37;;;;;;;;;1.75;0.75;;;;;16.20;69.82;100927.59;4994686;28;45926;-63
2022/10/25 03:09:03;;;;;;;;;2.00;2.00;;;;;16.21;69.79;100934.81;4994087;28;45508;-63
2022/10/25 03:11:29;;;;;;;;;4.50;1.50;;;;;16.22;69.86;100942.03;4993528;28;46250;-63
2022/10/25 03:13:54;;;;;;;;;3.25;1.50;;;;;15.85;69.62;100878.69;4993663;28;45477;-64
2022/10/25 03:16:20;;;;;;;;;1.50;1.00;;;;;16.25;69.87;100940.72;4977428;28;45378;-63
2022/10/25 03:18:45;;;;;;;;;2.00;1.50;;;;;16.22;69.83;100930.97;5009638;28;45568;-62
2022/10/25 03:21:11;;;;;;;;;4.00;2.75;;;;;16.28;69.94;100940.25;4993820;28;45501;-63
2022/10/25 03:23:36;;;;;;;;;2.00;2.00;;;;;16.24;69.79;100933.50;4993415;28;45441;-63
2022/10/25 03:26:02;;;;;;;;;2.75;2.25;;;;;16.12;70.44;100937.13;4960927;28;45399;-62
2022/10/25 03:28:28;;;;;;;;;4.00;1.00;;;;;16.06;70.49;100932.56;4994829;28;45348;-62
2022/10/25 03:30:54;;;;;;;;;3.00;2.25;;;;;15.93;70.52;100916.22;4993215;28;46724;-63
2022/10/25 03:33:19;;;;;;;;;3.00;2.00;;;;;16.13;70.43;100947.13;4994737;28;45359;-62
2022/10/25 03:35:48;;;;;;;;;1.00;1.00;;;;;16.16;70.30;100947.72;4994510;28;45352;-62
2022/10/25 03:38:14;;;;;;;;;3.00;2.00;;;;;16.15;70.49;100957.09;4993901;28;45445;-63
2022/10/25 03:40:40;;;;;;;;;1.75;1.75;;;;;16.13;70.46;100952.66;4993106;28;46463;-63
2022/10/25 03:43:05;;;;;;;;;1.40;1.40;;;;;16.15;70.33;100959.88;4992699;28;45341;-62
2022/10/25 03:45:31;;;;;;;;;1.75;1.75;;;;;16.19;70.12;100969.38;4994901;28;45363;-62
2022/10/25 03:47:56;;;;;;;;;1.00;1.00;;;;;16.19;70.38;100961.06;4993311;28;45452;-62
2022/10/25 03:50:22;;;;;;;;;2.00;2.00;;;;;16.19;70.15;100963.84;4993217;28;45480;-61
2022/10/25 03:52:47;;;;;;;;;3.25;2.25;;;;;16.21;70.12;100959.75;5009008;28;45367;-62
2022/10/25 03:55:13;;;;;;;;;2.00;2.00;;;;;16.11;70.01;100943.75;4976845;28;45247;-62
2022/10/25 03:57:38;;;;;;;;;2.25;0.25;;;;;16.27;69.58;100963.44;5009585;28;45619;-62
2022/10/25 04:00:04;;;;;;;;;3.25;2.00;;;;;16.25;69.92;100963.72;4993785;28;45370;-62
2022/10/25 04:02:30;;;;;;;;;2.50;1.00;;;;;16.23;69.84;100963.09;4992993;28;45382;-62
2022/10/25 04:04:55;;;;;;;;;3.75;1.25;;;;;16.28;69.58;100972.63;4993044;28;45431;-62
2022/10/25 04:07:20;;;;;;;;;1.75;1.75;;;;;16.19;69.79;100958.31;4994707;28;45706;-62
2022/10/25 04:09:46;;;;;;;;;2.25;1.25;;;;;16.21;69.73;100958.91;4992288;28;46065;-62
2022/10/25 04:12:11;;;;;;;;;5.75;2.00;;;;;16.25;69.90;100969.25;4993210;28;45861;-62
2022/10/25 04:14:37;;;;;;;;;3.00;2.25;;;;;16.18;69.95;100953.84;5009094;28;45458;-62
2022/10/25 04:17:02;;;;;;;;;2.75;2.75;;;;;16.24;69.88;100973.09;5009041;28;45563;-62
2022/10/25 04:19:28;;;;;;;;;2.00;1.00;;;;;16.20;69.55;100957.22;4995853;28;46024;-62
2022/10/25 04:21:53;;;;;;;;;1.75;1.75;;;;;16.15;70.15;100963.50;4997333;28;45385;-62
2022/10/25 04:24:19;;;;;;;;;6.00;4.00;;;;;16.12;70.71;100967.59;5012640;28;45439;-62
2022/10/25 04:26:45;;;;;;;;;2.50;1.00;;;;;16.15;70.80;100957.94;4996181;28;45449;-62
2022/10/25 04:29:10;;;;;;;;;1.00;1.00;;;;;16.07;70.65;100953.63;4995744;28;46669;-63
2022/10/25 04:31:36;;;;;;;;;2.25;2.25;;;;;16.13;70.42;100962.91;4996007;28;45286;-63
2022/10/25 04:34:01;;;;;;;;;4.25;3.00;;;;;15.95;70.52;100939.81;4996039;28;45425;-62
2022/10/25 04:36:27;;;;;;;;;1.25;0.25;;;;;16.09;70.41;100951.47;4997770;28;45622;-62
2022/10/25 04:38:53;;;;;;;;;5.60;3.40;;;;;16.19;70.76;100969.38;4979713;28;45380;-63
2022/10/25 04:41:19;;;;;;;;;3.00;2.00;;;;;16.12;70.44;100955.69;5012266;28;45505;-62
2022/10/25 04:43:44;;;;;;;;;1.00;1.00;;;;;16.17;70.51;100966.03;4995580;28;45201;-62
2022/10/25 04:46:10;;;;;;;;;3.50;2.00;;;;;16.16;70.64;100964.34;4979883;28;45209;-63
2022/10/25 04:48:39;;;;;;;;;1.50;1.50;;;;;16.14;71.11;100978.44;5012493;28;47243;-63
2022/10/25 04:51:05;;;;;;;;;5.80;4.40;;;;;16.11;71.13;100979.75;4995308;28;45402;-62
2022/10/25 04:53:30;;;;;;;;;8.25;4.25;;;;;16.13;71.17;100979.50;4995881;28;45386;-63
2022/10/25 04:55:57;;;;;;;;;3.00;2.25;;;;;16.01;71.20;100957.38;4979834;28;45223;-62
2022/10/25 04:58:23;;;;;;;;;4.20;2.80;;;;;15.86;71.35;100939.31;4995608;28;45429;-62
2022/10/25 05:00:49;;;;;;;;;4.20;3.00;;;;;16.13;71.13;100980.34;4996032;28;46013;-62
2022/10/25 05:03:15;;;;;;;;;4.75;3.75;;;;;16.10;71.19;100971.69;4995651;28;45364;-62
2022/10/25 05:05:40;;;;;;;;;3.75;2.75;;;;;16.06;70.92;100976.88;5012709;28;45363;-62
2022/10/25 05:08:06;;;;;;;;;6.00;4.00;;;;;16.07;71.85;100980.50;4995170;28;45722;-62
2022/10/25 05:10:31;;;;;;;;;3.50;1.75;;;;;15.89;71.51;100951.00;4995634;28;45541;-63
2022/10/25 05:12:57;;;;;;;;;8.50;5.00;;;;;16.06;71.43;100976.03;4995696;28;45873;-62
2022/10/25 05:15:22;;;;;;;;;4.50;2.25;;;;;15.98;71.83;100985.56;4996615;28;45374;-65
2022/10/25 05:17:48;;;;;;;;;4.50;2.50;;;;;15.93;71.99;100963.28;4995667;28;46092;-63
2022/10/25 05:20:13;;;;;;;;;3.00;2.25;;;;;15.96;71.99;100982.19;4995053;28;45506;-62
2022/10/25 05:22:39;;;;;;;;;2.75;2.00;;;;;15.95;71.83;100989.63;4995549;28;45474;-62
2022/10/25 05:25:05;;;;;;;;;3.00;3.00;;;;;15.96;71.93;100987.72;4995476;28;45389;-63
2022/10/25 05:27:30;;;;;;;;;2.20;2.00;;;;;15.91;72.50;100982.84;5028174;28;46558;-62
2022/10/25 05:29:56;;;;;;;;;2.50;2.25;;;;;15.77;72.29;100962.91;4994723;28;45396;-67
2022/10/25 05:32:21;;;;;;;;;2.50;2.50;;;;;15.86;72.16;100972.53;4994793;28;45458;-63
2022/10/25 05:34:47;;;;;;;;;2.50;1.25;;;;;15.98;72.35;100983.63;4995616;28;45553;-62
2022/10/25 05:37:12;;;;;;;;;3.50;3.00;;;;;16.00;71.96;100986.13;5011698;28;47592;-62
2022/10/25 05:39:38;;;;;;;;;4.00;2.00;;;;;15.99;72.37;100987.22;4995043;28;45359;-62
2022/10/25 05:42:05;;;;;;;;;3.50;3.50;;;;;15.93;72.60;100994.59;4988241;28;45375;-63
2022/10/25 05:44:31;;;;;;;;;3.20;2.60;;;;;15.74;72.38;100963.38;4976693;28;45565;-63
2022/10/25 05:46:56;;;;;;;;;2.75;2.75;;;;;15.98;72.35;100989.16;4975601;28;46121;-62
2022/10/25 05:49:22;;;;;;;;;3.00;3.00;;;;;15.83;72.58;100967.50;4976174;28;45332;-63
2022/10/25 05:51:47;;;;;;;;;4.00;2.50;;;;;15.97;72.77;100993.00;4975654;28;45283;-64
2022/10/25 05:54:14;;;;;;;;;5.25;3.50;;;;;15.95;72.63;100988.81;4975555;28;45501;-63
2022/10/25 05:56:40;;;;;;;;;3.00;2.00;;;;;15.94;72.54;100987.09;4975235;28;45447;-62
2022/10/25 05:59:09;;;;;;;;;2.75;2.75;;;;;15.94;72.64;100990.72;4976548;28;45383;-64
2022/10/25 06:01:36;;;;;;;;;2.20;2.20;;;;;15.91;72.64;100991.16;4959210;28;45431;-63
2022/10/25 06:04:01;;;;;;;;;2.00;2.00;;;;;15.96;72.88;100998.81;4958984;28;45430;-65
2022/10/25 06:06:27;;;;;;;;;4.25;2.00;;;;;15.96;72.69;101007.09;4959003;28;45854;-64
2022/10/25 06:08:56;;;;;;;;;6.25;4.50;;;;;15.97;72.74;100997.72;4958627;28;45728;-64
2022/10/25 06:11:22;;;;;;;;;4.40;3.40;;;;;15.95;73.09;100997.13;4976146;28;45216;-64
2022/10/25 06:13:47;;;;;;;;;5.25;3.50;;;;;15.94;72.71;100996.25;4976514;28;45537;-64
2022/10/25 06:16:14;;;;;;;;;6.00;3.75;;;;;16.00;72.80;100997.22;4974794;28;46348;-64
2022/10/25 06:18:40;;;;;;;;;6.00;4.00;;;;;15.94;72.87;100987.97;4976064;28;45172;-64
2022/10/25 06:21:13;;;;;;;;;5.00;4.00;;;;;15.93;72.79;100989.06;4974857;28;45493;-64
2022/10/25 06:23:39;;;;;;;;;3.40;2.20;;;;;15.92;72.94;100995.69;4958495;28;45606;-62
2022/10/25 06:26:25;;;;;;;;;4.50;4.50;;;;;15.94;72.84;100990.72;4974944;28;46678;-64
2022/10/25 06:28:53;;;;;;;;;3.20;3.00;;;;;15.90;72.99;101003.31;4975804;28;45828;-64
2022/10/25 06:31:19;;;;;;;;;4.80;3.60;;;;;15.93;72.78;101002.88;4975029;28;45489;-64
2022/10/25 06:33:45;;;;;;;;;4.75;3.50;;;;;15.99;72.56;101007.47;4975917;28;45377;-64
2022/10/25 06:36:15;;;;;;;;;4.50;3.00;;;;;16.01;72.58;101012.72;4958574;28;47903;-65
2022/10/25 06:38:41;;;;;;;;;5.00;3.20;;;;;16.03;72.57;101010.59;4974601;28;45468;-66
2022/10/25 06:41:10;;;;;;;;;2.60;2.60;;;;;15.81;72.56;100975.16;4973679;28;45405;-63
2022/10/25 06:43:35;;;;;;;;;5.00;3.80;;;;;16.04;72.31;101016.94;4994261;28;45581;-63
2022/10/25 06:46:08;;;;;;;;;7.25;3.00;;;;;16.06;71.93;101017.56;5010443;28;45649;-65
2022/10/25 06:48:34;;;;;;;;;3.20;3.00;;;;;16.06;72.61;101021.16;4993835;28;45417;-65
2022/10/25 06:51:01;;;;;;;;;3.00;3.00;;;;;16.05;72.45;101013.09;4994290;28;45629;-63
2022/10/25 06:53:27;;;;;;;;;3.60;2.00;;;;;16.05;72.16;101022.25;4994436;28;45370;-65
2022/10/25 06:55:52;;;;;;;;;4.00;3.00;;;;;16.08;72.08;101023.69;4995138;28;45434;-65
2022/10/25 06:58:18;;;;;;;;;1.25;1.00;;;;;16.09;71.70;101025.38;4995769;28;45216;-65
2022/10/25 07:00:44;;;;;;;;;3.50;3.25;;;;;16.10;71.92;101032.59;4995013;28;45287;-65
2022/10/25 07:03:09;;;;;;;;;3.75;1.50;;;;;16.12;71.94;101024.91;5010837;28;45694;-65
2022/10/25 07:05:35;;;;;;;;;2.75;2.75;;;;;16.02;71.65;101008.06;4993977;28;45391;-65
2022/10/25 07:08:00;;;;;;;;;5.00;3.00;;;;;16.13;71.66;101027.41;4993861;28;45397;-65
2022/10/25 07:10:26;;;;;;;;;7.50;4.25;;;;;16.13;71.59;101030.19;4994146;28;45445;-62
2022/10/25 07:12:51;;;;;;;;;5.25;4.00;;;;;16.13;71.57;101018.28;4994242;28;45397;-62
2022/10/25 07:15:17;;;;;;;;;7.25;4.50;;;;;16.11;71.07;101021.28;4977078;28;46289;-64
2022/10/25 07:17:43;;;;;;;;;3.75;2.75;;;;;16.16;71.17;101030.81;4993654;28;45404;-61
2022/10/25 07:20:09;;;;;;;;;3.25;3.00;;;;;16.11;71.59;101029.59;4994784;28;45350;-62
2022/10/25 07:22:34;;;;;;;;;4.00;3.60;;;;;16.12;71.62;101034.03;5026991;28;45441;-62
2022/10/25 07:25:00;;;;;;;;;3.00;2.00;;;;;16.10;71.57;101038.97;4968948;28;46501;-63
2022/10/25 07:27:25;;;;;;;;;2.75;2.75;;;;;16.16;71.35;101036.34;4993738;28;45491;-64
2022/10/25 07:29:50;;;;;;;;;4.00;2.75;;;;;16.16;71.33;101030.81;4977156;28;45410;-63
2022/10/25 07:32:16;;;;;;;;;3.00;3.00;;;;;16.16;71.41;101034.38;4995047;28;45432;-64
2022/10/25 07:34:41;;;;;;;;;3.50;3.50;;;;;16.18;71.39;101040.56;4994103;28;45259;-63
2022/10/25 07:37:07;;;;;;;;;2.75;2.75;;;;;16.04;71.13;101012.25;4994679;28;45350;-63
2022/10/25 07:39:33;;;;;;;;;3.25;3.25;;;;;15.98;71.26;101007.69;4993359;28;45372;-64
2022/10/25 07:41:58;;;;;;;;;4.75;3.75;;;;;16.12;71.30;101031.25;4994551;28;45500;-63
2022/10/25 07:44:23;;;;;;;;;2.25;2.25;;;;;16.10;71.02;101027.91;4993739;28;45465;-63
2022/10/25 07:46:51;;;;;;;;;3.25;3.25;;;;;16.09;71.20;101020.69;4994703;28;45422;-64
2022/10/25 07:49:16;;;;;;;;;3.20;3.00;;;;;16.28;71.25;101048.25;4993200;28;45339;-64
2022/10/25 07:51:42;;;;;;;;;4.00;2.50;;;;;16.30;71.04;101051.59;4994773;28;45726;-64
2022/10/25 07:54:07;;;;;;;;;6.75;4.00;;;;;16.13;71.01;101010.78;4995728;28;45490;-64
2022/10/25 07:56:33;;;;;;;;;5.25;4.00;;;;;16.35;70.87;101054.50;4997725;28;45497;-64
2022/10/25 07:58:58;;;;;;;;;5.75;4.25;;;;;16.35;71.10;101054.50;4996579;28;45442;-66
2022/10/25 08:01:25;;;;;;;;;7.50;5.00;;;;;16.18;71.02;101020.31;4997487;28;45376;-67
2022/10/25 08:03:51;;;;;;;;;6.00;4.20;;;;;16.38;70.57;101061.44;4997539;28;45789;-62
2022/10/25 08:06:17;;;;;;;;;7.25;5.75;;;;;16.37;70.89;101049.53;4997358;28;45342;-65
2022/10/25 08:08:42;;;;;;;;;3.00;3.00;;;;;16.45;70.38;101053.03;5029244;28;45384;-65
2022/10/25 08:11:08;;;;;;;;;3.50;3.50;;;;;16.37;70.16;101030.16;4997614;28;45338;-64
2022/10/25 08:13:36;;;;;;;;;6.25;5.00;;;;;16.51;70.32;101040.97;4997284;28;46416;-63
2022/10/25 08:16:03;;;;;;;;;6.80;2.00;;;;;16.61;69.96;101037.56;4996899;28;45445;-63
2022/10/25 08:18:28;;;;;;;;;4.60;4.00;;;;;16.63;69.82;101043.69;4995886;28;45736;-61
2022/10/25 08:20:54;;;;;;;;;5.25;5.25;;;;;16.61;69.64;101027.34;5012545;28;45660;-63
2022/10/25 08:23:20;;;;;;;;;7.00;6.00;;;;;16.65;69.48;101039.59;4996811;28;45494;-65
2022/10/25 08:25:45;;;;;;;;;13.25;9.00;;;;;16.54;69.65;101023.84;4989163;28;45309;-66
2022/10/25 08:28:11;;;;;;;;;5.75;4.00;;;;;16.55;69.29;101025.53;4994797;28;45664;-64
2022/10/25 08:30:36;;;;;;;;;3.50;3.50;;;;;16.51;69.81;101038.19;4978447;28;45660;-66
2022/10/25 08:33:02;;;;;;;;;5.50;4.00;;;;;16.07;69.46;100975.78;5028638;28;45510;-64
2022/10/25 08:35:27;;;;;;;;;10.25;7.50;;;;;16.48;69.78;101038.66;4996790;28;45369;-64
2022/10/25 08:37:53;;;;;;;;;4.75;4.50;;;;;16.50;69.62;101039.28;4997473;28;45267;-64
2022/10/25 08:40:27;;;;;;;;;4.00;4.00;;;;;16.49;69.69;101037.59;5029205;28;45294;-66
2022/10/25 08:43:15;;;;;;;;;4.60;3.00;;;;;16.51;69.61;101030.72;4996748;28;46858;-67
2022/10/25 08:45:51;;;;;;;;;3.80;3.40;;;;;16.50;68.86;101022.66;4994700;28;45335;-66
2022/10/25 08:48:17;;;;;;;;;5.60;4.40;;;;;16.32;68.92;100995.97;4979786;28;45760;-67
2022/10/25 08:50:45;;;;;;;;;5.60;3.40;;;;;16.57;68.93;101030.81;4979197;28;45694;-65
2022/10/25 08:53:17;;;;;;;;;3.60;2.00;;;;;16.56;67.64;101027.22;4997029;28;46455;-66
2022/10/25 08:55:43;;;;;;;;;2.20;1.80;;;;;16.65;67.21;101030.47;4978734;28;45812;-64
2022/10/25 08:58:25;;;;;;;;;2.00;2.00;;;;;16.65;66.59;101034.03;4997034;28;45309;-62
2022/10/25 09:00:50;;;;;;;;;4.20;2.00;;;;;16.65;66.33;101039.59;4995811;28;45242;-64
2022/10/25 09:03:24;;;;;;;;;3.25;1.00;;;;;16.69;66.21;101028.03;4995601;28;45439;-65
2022/10/25 09:06:06;;;;;;;;;1.00;1.00;;;;;16.76;65.49;101037.88;4994661;28;45855;-64
2022/10/25 09:09:10;;;;;;;;;2.00;2.00;;;;;16.80;65.21;101036.28;4997024;28;45251;-65
2022/10/25 09:11:45;;;;;;;;;1.00;1.00;;;;;16.82;64.59;101030.50;4995700;28;45440;-62
2022/10/25 09:14:17;;;;;;;;;3.40;2.40;;;;;16.74;64.59;101015.09;4988658;28;46477;-65
2022/10/25 09:16:50;;;;;;;;;3.00;1.20;;;;;16.86;64.50;101023.38;4985637;28;45568;-64
2022/10/25 09:19:25;;;;;;;;;1.00;1.00;;;;;16.84;64.40;101033.88;4994804;28;45454;-64
2022/10/25 09:22:13;;;;;;;;;2.00;1.00;;;;;16.86;64.33;101026.13;4980063;28;45276;-64
2022/10/25 09:24:53;;;;;;;;;4.80;4.80;;;;;16.90;64.16;101013.47;4962299;28;46579;-65
2022/10/25 09:27:31;;;;;;;;;1.00;1.00;;;;;16.42;64.21;100934.41;4992779;28;45412;-67
2022/10/25 09:30:07;;;;;;;;;2.40;1.00;;;;;16.93;63.94;101018.50;4961743;28;45494;-63
2022/10/25 09:32:33;;;;;;;;;1.40;1.00;;;;;16.98;63.93;101025.25;4974298;28;45419;-66
2022/10/25 09:34:59;;;;;;;;;2.00;2.00;;;;;17.00;63.96;101031.38;4975091;28;46014;-66
2022/10/25 09:37:27;;;;;;;;;2.80;2.20;;;;;16.92;64.20;101019.59;4974021;28;45354;-65
2022/10/25 09:39:54;;;;;;;;;1.00;1.00;;;;;16.83;63.96;101001.69;4974215;28;45338;-66
2022/10/25 09:42:30;;;;;;;;;3.60;2.00;;;;;17.03;64.00;101014.28;4945579;28;46094;-65
2022/10/25 09:45:20;;;;;;;;;3.80;2.80;;;;;16.91;63.74;100981.88;4976653;28;47829;-65
2022/10/25 09:47:51;;;;;;;;;2.00;2.00;;;;;17.09;63.48;101016.06;4988351;28;45436;-65
2022/10/25 09:50:28;;;;;;;;;1.20;1.00;;;;;17.12;63.26;101017.50;4993859;28;45438;-64
2022/10/25 09:52:54;;;;;;;;;2.00;0.00;;;;;17.19;62.99;101007.94;4977524;28;45619;-66
2022/10/25 09:55:44;;;;;;;;;2.00;1.00;;;;;17.25;62.77;101019.13;4992967;28;45532;-70
2022/10/25 09:58:18;;;;;;;;;1.00;1.00;;;;;17.27;62.90;101022.47;4993759;28;45339;-64
2022/10/25 10:00:44;;;;;;;;;2.00;2.00;;;;;17.37;62.86;101027.34;4982654;28;45427;-65
2022/10/25 10:03:10;;;;;;;;;2.00;2.00;;;;;17.40;62.47;101010.22;4983876;28;45349;-64
2022/10/25 10:05:35;;;;;;;;;3.60;1.80;;;;;17.59;62.27;101010.81;4976649;28;48748;-69
2022/10/25 10:08:01;;;;;;;;;1.50;1.25;;;;;17.70;61.96;101009.03;4992000;28;45446;-66
2022/10/25 10:10:29;;;;;;;;;1.00;0.75;;;;;17.84;61.23;100998.41;4993806;28;45378;-66
2022/10/25 10:13:14;;;;;;;;;0.00;0.00;;;;;18.00;61.48;101005.03;4992996;28;45459;-65
2022/10/25 10:15:56;;;;;;;;;1.40;1.00;;;;;18.10;61.30;101005.19;4993322;28;46142;-65
2022/10/25 10:18:23;;;;;;;;;2.00;1.00;;;;;18.18;60.89;101009.47;4992871;28;45480;-64
2022/10/25 10:21:02;;;;;;;;;1.20;1.00;;;;;18.32;60.88;100998.00;4993203;28;45481;-64
2022/10/25 10:23:34;;;;;;;;;2.20;1.60;;;;;18.43;60.44;101003.41;4994303;28;45521;-64
2022/10/25 10:26:13;;;;;;;;;2.00;2.00;;;;;18.58;60.35;101001.09;4992615;28;45485;-64
2022/10/25 10:28:43;;;;;;;;;18.00;15.00;;;;;18.56;60.04;100968.84;4988384;28;45417;-64
2022/10/25 10:31:09;;;;;;;;;7.40;6.40;;;;;18.88;60.20;100997.00;4979529;28;45587;-64
2022/10/25 10:33:34;;;;;;;;;6.50;5.75;;;;;19.03;59.77;101005.50;4980816;28;45459;-64
2022/10/25 10:36:21;;;;;;;;;3.50;2.00;;;;;19.08;59.55;100997.22;4993644;28;45813;-64
2022/10/25 10:38:47;;;;;;;;;2.20;1.40;;;;;19.27;59.00;101001.56;4992973;28;45412;-64
2022/10/25 10:41:19;;;;;;;;;4.00;2.25;;;;;19.07;58.68;100942.69;5008896;28;45369;-64
2022/10/25 10:43:45;;;;;;;;;4.40;2.00;;;;;19.47;58.33;100984.19;4971525;28;45481;-64
2022/10/25 10:46:13;;;;;;;;;5.25;4.75;;;;;19.75;58.18;100991.34;4956228;28;47306;-64
2022/10/25 10:48:41;;;;;;;;;3.40;2.00;;;;;20.08;57.24;100963.47;4959717;28;45377;-64
2022/10/25 10:51:07;;;;;;;;;3.60;1.80;;;;;21.23;54.38;100973.81;4990745;28;45537;-64
2022/10/25 10:53:32;;;;;;;;;4.00;2.75;;;;;23.25;50.43;100985.41;4973214;28;45560;-64
2022/10/25 10:56:02;;;;;;;;;3.00;3.00;;;;;24.75;45.73;100915.59;4961331;28;45379;-65
2022/10/25 10:58:33;;;;;;;;;2.60;1.40;;;;;27.75;40.91;100975.28;4976468;28;45781;-65
2022/10/25 11:01:08;;;;;;;;;4.00;2.60;;;;;29.58;36.72;100960.09;4993482;28;45484;-65
2022/10/25 11:03:37;;;;;;;;;3.40;1.00;;;;;28.51;38.59;100975.38;4976059;28;45693;-65
2022/10/25 11:06:14;;;;;;;;;2.00;2.00;;;;;31.17;34.75;100957.16;4992064;28;46549;-63
2022/10/25 11:08:40;;;;;;;;;4.60;2.60;;;;;33.24;31.29;100957.38;4964055;28;45437;-63
2022/10/25 11:11:13;;;;;;;;;1.60;1.60;;;;;34.31;28.50;100905.63;4992720;28;45410;-63
2022/10/25 11:13:38;;;;;;;;;4.20;2.80;;;;;31.35;31.95;100955.00;4994107;28;45800;-63
2022/10/25 11:16:21;;;;;;;;;3.25;3.00;;;;;31.35;33.26;100954.16;4994181;28;45592;-63
2022/10/25 11:19:22;;;;;;;;;4.00;2.60;;;;;33.79;30.03;100951.13;4977106;28;45448;-64
2022/10/25 11:21:51;;;;;;;;;4.80;3.60;;;;;30.91;33.78;100952.56;4989078;28;45441;-63
2022/10/25 11:24:32;;;;;;;;;3.00;3.00;;;;;29.40;35.60;100942.31;4933419;28;45656;-65
2022/10/25 11:27:11;;;;;;;;;3.00;3.00;;;;;31.34;33.07;100938.34;4984382;28;45716;-63
2022/10/25 11:29:46;;;;;;;;;1.80;1.80;;;;;33.84;29.42;100930.94;4973114;28;45774;-61
2022/10/25 11:32:42;;;;;;;;;4.00;4.00;;;;;34.86;27.96;100917.00;4974590;28;45536;-60